Bookmark and Share
Track history (hours):
 

Kisaragimaru

Last reported at 2014-Apr-23 15:33 UTC. Time now 2014-Apr-23 15:38 UTC.
Position N 34°36' E 135°19'.

Length 77 m; draft 4.9 m.

Type: Tanker. MMSI: 431501667.

NotesDate/timePositionNaut miles runAvg speedWind from/ knotsBaromVisibWave heightAir tempDewpointWater temp
2014-Apr-23 15:33N 34°36' E 135°19'0 0.0
2014-Apr-23 14:33N 34°36' E 135°19'0 0.0
2014-Apr-23 13:33N 34°36' E 135°19'0 0.0
2014-Apr-23 12:33N 34°36' E 135°19'0 0.0
2014-Apr-23 11:27N 34°36' E 135°19'0 0.1
2014-Apr-23 10:33N 34°36' E 135°19'0 0.0
2014-Apr-23 09:33N 34°36' E 135°19'0 0.0
2014-Apr-23 08:21N 34°36' E 135°19'0 0.1
2014-Apr-23 07:33N 34°36' E 135°19'0 0.0
2014-Apr-23 06:15N 34°36' E 135°19'0 0.0
2014-Apr-23 03:18N 34°36' E 135°19'5 1.3
2014-Apr-22 23:14N 34°39' E 135°25'1 1.8
2014-Apr-22 22:33N 34°39' E 135°24'4 3.7
2014-Apr-22 21:26N 34°36' E 135°20'0 0.0
2014-Apr-22 20:26N 34°36' E 135°20'0 0.0
2014-Apr-22 19:32N 34°36' E 135°20'0 0.0
2014-Apr-22 18:26N 34°36' E 135°20'0 0.0
2014-Apr-22 17:32N 34°36' E 135°20'0 0.0
2014-Apr-22 16:26N 34°36' E 135°20'0 0.0
2014-Apr-22 15:32N 34°36' E 135°20'0 0.0
2014-Apr-22 14:32N 34°36' E 135°20'0 0.0
2014-Apr-22 13:32N 34°36' E 135°20'0 0.0
2014-Apr-22 12:14N 34°36' E 135°20'0 0.0
2014-Apr-22 11:32N 34°36' E 135°20'0 0.0
2014-Apr-22 10:20N 34°36' E 135°20'0 0.0
2014-Apr-22 09:26N 34°36' E 135°20'3 3.5
2014-Apr-22 08:33N 34°38' E 135°23'2 1.0
2014-Apr-22 06:21N 34°39' E 135°25'3 4.0
2014-Apr-22 05:33N 34°36' E 135°24'2 0.4
2014-Apr-22 00:33N 34°34' E 135°26'0 0.0
2014-Apr-21 23:33N 34°34' E 135°26'0 0.0
2014-Apr-21 22:33N 34°34' E 135°26'6 6.0
2014-Apr-21 21:33N 34°36' E 135°19'0 0.1
2014-Apr-21 20:26N 34°36' E 135°19'0 0.0
2014-Apr-21 19:26N 34°36' E 135°19'0 0.0
2014-Apr-21 18:26N 34°36' E 135°19'0 0.0
2014-Apr-21 17:26N 34°36' E 135°19'0 0.1
2014-Apr-21 16:20N 34°36' E 135°19'0 0.0
2014-Apr-21 15:26N 34°36' E 135°19'0 0.0
2014-Apr-21 14:32N 34°36' E 135°19'0 0.0
2014-Apr-21 13:26N 34°36' E 135°19'0 0.0
2014-Apr-21 12:32N 34°36' E 135°19'0 0.0
2014-Apr-21 11:32N 34°36' E 135°19'0 0.0
2014-Apr-21 09:32N 34°36' E 135°19'0 0.0
2014-Apr-21 08:32N 34°36' E 135°19'0 0.0
2014-Apr-21 07:32N 34°36' E 135°19'0 0.0
2014-Apr-21 06:26N 34°36' E 135°19'0 0.0
2014-Apr-21 05:32N 34°36' E 135°19'0 0.0
2014-Apr-21 04:26N 34°36' E 135°19'0 0.0
2014-Apr-21 02:32N 34°36' E 135°19'0 0.0
2014-Apr-21 01:32N 34°36' E 135°19'0 0.0
2014-Apr-21 00:26N 34°36' E 135°19'0 0.0
2014-Apr-20 23:32N 34°36' E 135°19'0 0.0
2014-Apr-20 22:26N 34°36' E 135°19'0 0.0
2014-Apr-20 21:32N 34°36' E 135°19'0 0.0
2014-Apr-20 20:32N 34°36' E 135°19'0 0.0
2014-Apr-20 19:26N 34°36' E 135°19'0 0.0
2014-Apr-20 18:14N 34°36' E 135°19'0 0.0
2014-Apr-20 17:32N 34°36' E 135°19'0 0.0
2014-Apr-20 16:32N 34°36' E 135°19'0 0.0
2014-Apr-20 15:32N 34°36' E 135°19'0 0.0
2014-Apr-20 14:32N 34°36' E 135°19'0 0.0
2014-Apr-20 13:32N 34°36' E 135°19'0 0.0
2014-Apr-20 12:32N 34°36' E 135°19'0 0.0
2014-Apr-20 11:32N 34°36' E 135°19'0 0.0
2014-Apr-20 10:32N 34°36' E 135°19'0 0.0
2014-Apr-20 09:26N 34°36' E 135°19'0 0.0
2014-Apr-20 08:32N 34°36' E 135°19'0 0.0
2014-Apr-20 07:26N 34°36' E 135°19'0 0.0
2014-Apr-20 06:32N 34°36' E 135°19'0 0.0
2014-Apr-20 05:32N 34°36' E 135°19'0 0.0
2014-Apr-20 04:32N 34°36' E 135°19'0 0.0
2014-Apr-20 03:26N 34°36' E 135°19'0 0.0
2014-Apr-20 02:26N 34°36' E 135°19'0 0.0
2014-Apr-20 01:32N 34°36' E 135°19'0 0.0
2014-Apr-20 00:26N 34°36' E 135°19'0 0.0
2014-Apr-19 23:26N 34°36' E 135°19'0 0.0
2014-Apr-19 22:32N 34°36' E 135°19'0 0.0
2014-Apr-19 21:32N 34°36' E 135°19'0 0.0
2014-Apr-19 20:32N 34°36' E 135°19'0 0.0
2014-Apr-19 19:32N 34°36' E 135°19'0 0.0
2014-Apr-19 18:32N 34°36' E 135°19'0 0.0
2014-Apr-19 17:26N 34°36' E 135°19'0 0.0
2014-Apr-19 16:32N 34°36' E 135°19'0 0.0
2014-Apr-19 15:32N 34°36' E 135°19'0 0.0
2014-Apr-19 14:32N 34°36' E 135°19'0 0.0
2014-Apr-19 13:32N 34°36' E 135°19'0 0.0
2014-Apr-19 12:32N 34°36' E 135°19'0 0.0
2014-Apr-19 11:32N 34°36' E 135°19'0 0.0
2014-Apr-19 10:32N 34°36' E 135°19'0 0.0
2014-Apr-19 09:32N 34°36' E 135°19'0 0.0
2014-Apr-19 08:32N 34°36' E 135°19'0 0.0
2014-Apr-19 07:20N 34°36' E 135°19'0 0.0
2014-Apr-19 06:20N 34°36' E 135°19'0 0.0
2014-Apr-19 05:32N 34°36' E 135°19'0 0.0
2014-Apr-19 03:32N 34°36' E 135°19'0 0.0
2014-Apr-19 02:32N 34°36' E 135°19'0 0.1
2014-Apr-19 01:26N 34°36' E 135°19'0 0.0
2014-Apr-19 00:20N 34°36' E 135°19'0 0.0
2014-Apr-18 23:32N 34°36' E 135°19'0 0.0
2014-Apr-18 22:32N 34°36' E 135°19'0 0.0
2014-Apr-18 21:32N 34°36' E 135°19'0 0.0
2014-Apr-18 20:32N 34°36' E 135°19'0 0.0
2014-Apr-18 19:26N 34°36' E 135°19'0 0.0
2014-Apr-18 18:32N 34°36' E 135°19'0 0.0
2014-Apr-18 17:32N 34°36' E 135°19'0 0.0
2014-Apr-18 16:32N 34°36' E 135°19'0 0.0
2014-Apr-18 15:32N 34°36' E 135°19'0 0.0
2014-Apr-18 14:20N 34°36' E 135°19'0 0.0
2014-Apr-18 13:14N 34°36' E 135°19'0 0.0
2014-Apr-18 12:32N 34°36' E 135°19'0 0.0
2014-Apr-18 11:32N 34°36' E 135°19'0 0.0
2014-Apr-18 10:20N 34°36' E 135°19'0 0.0
2014-Apr-18 07:26N 34°36' E 135°19'0 0.1
2014-Apr-18 06:32N 34°36' E 135°19'0 0.0
2014-Apr-18 05:32N 34°36' E 135°19'0 0.0
2014-Apr-18 04:26N 34°36' E 135°19'0 0.0
2014-Apr-18 03:32N 34°36' E 135°19'0 0.0
2014-Apr-18 02:32N 34°36' E 135°19'0 0.0
2014-Apr-18 01:32N 34°36' E 135°19'0 0.1
2014-Apr-18 00:32N 34°36' E 135°19'7 0.2
2014-Apr-16 04:08N 34°31' E 135°24'1 2.3
2014-Apr-16 03:33N 34°32' E 135°24'5 3.7
2014-Apr-16 02:08N 34°36' E 135°19'0 0.1
2014-Apr-16 01:26N 34°36' E 135°19'0 0.0
2014-Apr-16 00:32N 34°36' E 135°19'0 0.0
2014-Apr-15 23:26N 34°36' E 135°19'0 0.0
2014-Apr-15 22:20N 34°36' E 135°19'0 0.0
2014-Apr-15 21:32N 34°36' E 135°19'0 0.0
2014-Apr-15 20:32N 34°36' E 135°19'0 0.0
2014-Apr-15 19:32N 34°36' E 135°19'0 0.0
2014-Apr-15 18:32N 34°36' E 135°19'0 0.0
2014-Apr-15 17:32N 34°36' E 135°19'0 0.0
2014-Apr-15 16:32N 34°36' E 135°19'0 0.0
2014-Apr-15 15:32N 34°36' E 135°19'0 0.0
2014-Apr-15 14:32N 34°36' E 135°19'0 0.0
2014-Apr-15 10:32N 34°36' E 135°19'0 0.0
2014-Apr-15 06:32N 34°36' E 135°19'0 0.0
2014-Apr-15 05:32N 34°36' E 135°19'0 0.0
2014-Apr-15 03:32N 34°36' E 135°19'0 0.0
2014-Apr-15 00:32N 34°36' E 135°19'0 0.0
2014-Apr-14 19:32N 34°36' E 135°19'0 0.0
2014-Apr-14 17:32N 34°36' E 135°19'0 0.0
2014-Apr-14 15:32N 34°36' E 135°19'0 0.0
2014-Apr-14 14:32N 34°36' E 135°19'0 0.0
2014-Apr-14 13:32N 34°36' E 135°19'0 0.0
2014-Apr-14 10:32N 34°36' E 135°19'0 0.0
2014-Apr-13 22:32N 34°36' E 135°19'0 0.0
2014-Apr-13 21:32N 34°36' E 135°19'0 0.0
2014-Apr-13 20:32N 34°36' E 135°19'0 0.0
2014-Apr-13 19:32N 34°36' E 135°19'0 0.0
2014-Apr-13 18:32N 34°36' E 135°19'0 0.0
2014-Apr-13 17:26N 34°36' E 135°19'0 0.0
2014-Apr-13 16:26N 34°36' E 135°19'  

Dump ship's entire track history

sailing weather and tide predictions

Kisaragimaru — JL6605 — position and weather